Time;durP1;ratioP1;P1;durP2;ratioP2;P2;SDS_P1;SDS_P2;PMS_P1;PMS_P2;Temp;Humidity;BMP_temperature;BMP_pressure;BME280_temperature;BME280_humidity;BME280_pressure;Samples;Min_cycle;Max_cycle;Signal;HPM_P1;HPM_P2
2023/03/07 00:00:40;;;;;;;9.18;5.18;;;;;;;10.19;57.87;94057.66;4999315;28;20431;-78
2023/03/07 00:03:05;;;;;;;9.25;5.47;;;;;;;10.12;58.34;94056.91;5004162;28;20421;-78
2023/03/07 00:05:31;;;;;;;8.43;5.40;;;;;;;10.13;58.16;94046.16;5002187;28;20499;-78
2023/03/07 00:07:57;;;;;;;10.70;5.73;;;;;;;10.11;58.04;94034.31;4996871;28;20427;-78
2023/03/07 00:10:22;;;;;;;9.10;4.93;;;;;;;10.34;56.73;94044.03;5004987;28;20175;-78
2023/03/07 00:12:48;;;;;;;8.80;5.70;;;;;;;10.34;57.03;94044.84;5012720;28;20414;-78
2023/03/07 00:15:13;;;;;;;7.03;4.37;;;;;;;10.42;56.57;94038.44;4998293;28;20652;-78
2023/03/07 00:17:39;;;;;;;8.57;5.30;;;;;;;10.53;56.04;94042.91;5008482;28;20492;-78
2023/03/07 00:20:06;;;;;;;7.20;4.70;;;;;;;10.46;56.54;94034.31;5003333;28;20193;-78
2023/03/07 00:22:35;;;;;;;10.47;6.00;;;;;;;10.51;56.27;94029.16;5010126;28;20165;-78
2023/03/07 00:25:00;;;;;;;8.00;4.43;;;;;;;10.56;56.09;94018.72;4997421;28;20178;-78
2023/03/07 00:27:26;;;;;;;12.43;5.23;;;;;;;10.57;56.06;94022.97;5005803;28;20192;-78
2023/03/07 00:29:51;;;;;;;8.93;5.00;;;;;;;10.57;56.63;94029.03;5014762;28;20171;-78
2023/03/07 00:32:17;;;;;;;7.40;5.20;;;;;;;10.58;56.83;94014.84;5002476;28;20477;-78
2023/03/07 00:34:42;;;;;;;6.47;4.67;;;;;;;10.55;56.29;94017.16;5004281;28;20418;-77
2023/03/07 00:37:08;;;;;;;8.67;5.20;;;;;;;10.42;56.89;94020.81;5011405;28;20632;-78
2023/03/07 00:39:33;;;;;;;9.40;5.03;;;;;;;10.47;56.91;94020.13;5011916;28;20207;-78
2023/03/07 00:41:58;;;;;;;10.33;5.90;;;;;;;10.30;57.27;93992.91;5002498;28;20426;-78
2023/03/07 00:44:25;;;;;;;8.17;4.47;;;;;;;10.50;55.15;94032.81;5002068;28;20404;-78
2023/03/07 00:46:51;;;;;;;4.22;3.40;;;;;;;10.34;54.67;94015.91;5010952;28;20534;-78
2023/03/07 00:49:19;;;;;;;8.85;5.13;;;;;;;10.34;55.52;94026.44;5007294;28;20924;-78
2023/03/07 00:51:44;;;;;;;8.57;5.33;;;;;;;10.33;56.04;93998.53;4994611;28;20427;-77
2023/03/07 00:54:10;;;;;;;11.10;5.80;;;;;;;10.44;56.89;94012.69;5007086;28;20899;-77
2023/03/07 00:56:35;;;;;;;11.97;6.77;;;;;;;10.35;57.50;94017.50;5003029;28;20474;-77
2023/03/07 00:59:00;;;;;;;15.07;8.03;;;;;;;10.25;58.07;94025.19;5010991;28;20441;-77
2023/03/07 01:01:26;;;;;;;12.87;7.63;;;;;;;9.99;58.85;94022.97;4997881;28;20423;-77
2023/03/07 01:03:52;;;;;;;11.23;7.10;;;;;;;9.84;59.40;94028.66;5001138;28;20420;-77
2023/03/07 01:06:20;;;;;;;18.65;7.90;;;;;;;9.87;59.41;94020.31;4993600;28;20444;-77
2023/03/07 01:08:46;;;;;;;13.77;8.30;;;;;;;9.66;60.24;94013.78;5002746;28;20846;-77
2023/03/07 01:11:12;;;;;;;16.83;9.47;;;;;;;9.32;61.69;94007.41;4993767;28;20507;-77
2023/03/07 01:13:38;;;;;;;18.40;9.55;;;;;;;9.33;62.24;94009.03;4992879;28;20412;-77
2023/03/07 01:16:18;;;;;;;15.30;8.65;;;;;;;9.27;62.34;93996.75;4994257;28;20757;-77
2023/03/07 01:18:46;;;;;;;16.20;8.43;;;;;;;9.14;63.12;93996.16;4993382;28;20940;-77
2023/03/07 01:21:33;;;;;;;14.48;8.07;;;;;;;9.22;62.50;93978.25;4994117;28;20566;-76
2023/03/07 01:23:58;;;;;;;17.08;8.27;;;;;;;9.12;62.75;93982.44;4993975;28;20416;-77
2023/03/07 01:26:27;;;;;;;12.97;7.70;;;;;;;8.94;64.16;93984.09;5003432;28;20406;-77
2023/03/07 01:28:54;;;;;;;14.77;6.77;;;;;;;8.95;64.20;93982.28;5004812;28;20186;-77
2023/03/07 01:31:20;;;;;;;12.50;6.20;;;;;;;8.97;63.53;93948.72;5003551;28;20181;-77
2023/03/07 01:33:50;;;;;;;16.85;8.65;;;;;;;9.11;63.16;93954.59;4992308;28;20412;-77
2023/03/07 01:36:18;;;;;;;15.40;6.70;;;;;;;9.23;63.04;93979.88;5000344;28;20717;-77
2023/03/07 01:38:45;;;;;;;11.17;6.43;;;;;;;9.24;63.23;93983.31;5010660;28;20180;-77
2023/03/07 01:41:10;;;;;;;16.95;8.07;;;;;;;9.32;62.83;93978.53;4998496;28;20523;-77
2023/03/07 01:43:36;;;;;;;33.85;14.48;;;;;;;9.38;62.08;93969.75;4998630;28;20881;-77
2023/03/07 01:46:17;;;;;;;26.67;11.70;;;;;;;9.39;62.73;93960.03;5010424;28;20173;-77
2023/03/07 01:49:00;;;;;;;18.57;7.73;;;;;;;9.45;62.76;93969.63;4996382;28;20188;-77
2023/03/07 01:51:26;;;;;;;17.70;9.07;;;;;;;9.21;62.89;93981.91;5002330;28;20460;-79
2023/03/07 01:53:54;;;;;;;12.40;6.87;;;;;;;9.26;62.65;93971.53;4996675;28;20189;-79
2023/03/07 01:56:21;;;;;;;15.48;7.68;;;;;;;9.32;62.25;93980.34;5001369;28;20456;-78
2023/03/07 01:58:46;;;;;;;12.43;7.72;;;;;;;9.26;62.39;93994.34;5011469;28;20501;-79
2023/03/07 02:01:13;;;;;;;12.40;6.60;;;;;;;9.34;62.04;93976.44;5012262;28;20268;-77
2023/03/07 02:03:48;;;;;;;11.63;6.30;;;;;;;9.42;61.53;93976.16;5012488;28;20168;-77
2023/03/07 02:06:13;;;;;;;11.67;7.50;;;;;;;9.20;62.29;93985.56;5010946;28;20468;-77
2023/03/07 02:08:42;;;;;;;13.87;8.50;;;;;;;8.96;63.42;93995.19;5011002;28;20414;-77
2023/03/07 02:11:09;;;;;;;13.43;6.43;;;;;;;8.98;63.35;93987.88;5012451;28;20906;-77
2023/03/07 02:13:35;;;;;;;12.77;6.43;;;;;;;9.04;63.16;93962.56;5012401;28;20203;-77
2023/03/07 02:16:01;;;;;;;14.07;7.00;;;;;;;9.06;62.86;93965.78;5011548;28;20442;-77
2023/03/07 02:18:31;;;;;;;12.57;7.37;;;;;;;8.66;64.23;93953.16;5010532;28;20465;-78
2023/03/07 02:21:08;;;;;;;14.93;7.10;;;;;;;8.66;65.49;93971.53;5012297;28;20430;-78
2023/03/07 02:24:03;;;;;;;10.77;5.80;;;;;;;8.72;65.77;93985.59;5011526;28;20161;-78
2023/03/07 02:26:42;;;;;;;12.95;7.30;;;;;;;8.85;64.90;93971.50;5003138;28;20429;-77
2023/03/07 02:29:09;;;;;;;10.70;5.83;;;;;;;8.98;64.01;93979.22;5008826;28;20180;-78
2023/03/07 02:31:34;;;;;;;11.83;6.50;;;;;;;8.81;64.06;93957.22;5012007;28;20607;-78
2023/03/07 02:34:00;;;;;;;12.20;6.20;;;;;;;8.78;63.60;93960.28;5012116;28;20176;-78
2023/03/07 02:36:35;;;;;;;11.67;6.27;;;;;;;8.85;63.83;93971.50;5012408;28;20259;-78
2023/03/07 02:39:02;;;;;;;10.40;5.50;;;;;;;8.90;63.41;93974.28;5006176;28;20196;-78
2023/03/07 02:41:30;;;;;;;9.48;6.15;;;;;;;8.98;62.81;93972.16;5011364;28;20961;-78
2023/03/07 02:43:56;;;;;;;10.07;5.13;;;;;;;9.01;62.17;93968.25;5012128;28;20690;-78
2023/03/07 02:46:21;;;;;;;11.90;6.13;;;;;;;8.91;62.55;93973.22;5011257;28;20419;-78
2023/03/07 02:48:46;;;;;;;9.23;5.80;;;;;;;8.95;62.77;93985.69;5012136;28;20473;-78
2023/03/07 02:51:12;;;;;;;8.83;5.47;;;;;;;9.00;63.04;93988.44;5012177;28;20207;-78
2023/03/07 02:53:38;;;;;;;12.77;6.20;;;;;;;9.01;63.53;93973.50;5012593;28;20527;-78
2023/03/07 02:56:04;;;;;;;12.65;7.05;;;;;;;9.05;63.17;93990.41;5013359;28;20410;-78
2023/03/07 02:58:30;;;;;;;14.23;7.20;;;;;;;9.01;63.25;93984.00;5015706;28;20347;-77
2023/03/07 03:00:55;;;;;;;11.77;6.93;;;;;;;8.92;63.38;93974.81;5014300;28;21012;-78
2023/03/07 03:03:21;;;;;;;12.27;6.43;;;;;;;9.04;63.52;93979.13;5016018;28;20170;-78
2023/03/07 03:05:46;;;;;;;11.83;6.43;;;;;;;9.09;63.14;93975.81;5015530;28;20469;-78
2023/03/07 03:08:12;;;;;;;12.80;6.73;;;;;;;9.17;62.59;93988.63;5014698;28;20933;-77
2023/03/07 03:10:38;;;;;;;12.00;6.30;;;;;;;9.08;63.00;93975.00;5016150;28;20157;-78
2023/03/07 03:13:03;;;;;;;10.57;6.20;;;;;;;9.14;63.20;93983.84;5016049;28;20180;-78
2023/03/07 03:15:29;;;;;;;67.63;27.03;;;;;;;9.12;63.05;93985.88;5015712;28;20412;-77
2023/03/07 03:17:54;;;;;;;17.50;9.30;;;;;;;9.04;63.24;93963.38;5015855;28;20199;-78
2023/03/07 03:20:19;;;;;;;13.77;7.13;;;;;;;8.97;63.86;93961.84;5013988;28;20805;-77
2023/03/07 03:22:45;;;;;;;11.20;6.13;;;;;;;9.21;63.05;93974.03;5016111;28;20177;-78
2023/03/07 03:25:13;;;;;;;11.53;5.27;;;;;;;9.20;62.62;93972.44;5015716;28;20585;-78
2023/03/07 03:27:39;;;;;;;11.27;6.33;;;;;;;9.18;62.80;93974.47;5016015;28;20672;-78
2023/03/07 03:30:06;;;;;;;12.10;6.93;;;;;;;9.04;63.57;93950.25;5015836;28;20160;-78
2023/03/07 03:32:32;;;;;;;15.02;9.13;;;;;;;8.80;65.49;93980.06;5014229;28;20411;-77
2023/03/07 03:34:58;;;;;;;17.97;9.13;;;;;;;8.72;66.26;93979.56;5014339;28;20409;-78
2023/03/07 03:37:23;;;;;;;7.90;5.60;;;;;;;8.87;64.85;93991.25;5015807;28;20643;-78
2023/03/07 03:39:51;;;;;;;11.97;6.60;;;;;;;9.00;64.36;93971.91;5014347;28;20458;-78
2023/03/07 03:42:16;;;;;;;11.75;7.25;;;;;;;9.09;64.31;93981.06;5014629;28;20866;-77
2023/03/07 03:44:41;;;;;;;12.70;7.50;;;;;;;9.08;64.19;93969.75;5015062;28;20255;-78
2023/03/07 03:47:07;;;;;;;15.17;7.73;;;;;;;9.12;64.65;93985.06;5015379;28;20260;-78
2023/03/07 03:49:32;;;;;;;36.73;15.47;;;;;;;8.86;65.63;93996.72;5014908;28;20406;-79
2023/03/07 03:51:58;;;;;;;21.93;9.27;;;;;;;8.61;66.86;93989.75;5014881;28;20610;-79
2023/03/07 03:54:23;;;;;;;18.67;8.87;;;;;;;8.73;66.63;93986.41;5015484;28;20191;-78
2023/03/07 03:56:48;;;;;;;19.47;10.07;;;;;;;8.85;66.64;93988.03;5013970;28;20985;-78
2023/03/07 03:59:14;;;;;;;18.83;9.20;;;;;;;8.86;66.64;93973.09;5002331;28;20193;-78
2023/03/07 04:01:39;;;;;;;19.70;9.52;;;;;;;8.83;66.59;93994.53;5011521;28;20422;-77
2023/03/07 04:04:05;;;;;;;18.10;9.07;;;;;;;8.60;67.30;93992.59;5002517;28;20422;-77
2023/03/07 04:06:33;;;;;;;10.95;7.05;;;;;;;8.68;65.45;93984.44;5010159;28;20504;-77
2023/03/07 04:08:59;;;;;;;13.50;6.38;;;;;;;8.76;65.13;93980.69;5006876;28;20917;-78
2023/03/07 04:11:25;;;;;;;8.70;6.10;;;;;;;8.77;65.39;93977.84;5003414;28;20223;-77
2023/03/07 04:13:51;;;;;;;11.67;5.80;;;;;;;8.90;65.24;93997.91;4995541;28;20252;-78
2023/03/07 04:16:17;;;;;;;15.43;7.73;;;;;;;8.76;65.29;93964.94;5012632;28;20501;-78
2023/03/07 04:18:42;;;;;;;13.80;8.23;;;;;;;8.76;66.30;93985.94;5010034;28;20454;-77
2023/03/07 04:21:09;;;;;;;13.07;7.13;;;;;;;8.85;66.06;93971.50;5006173;28;20620;-77
2023/03/07 04:23:35;;;;;;;13.52;7.82;;;;;;;8.76;65.48;93957.09;5002707;28;20444;-79
2023/03/07 04:26:03;;;;;;;15.97;8.00;;;;;;;8.73;66.99;93996.91;5004998;28;20172;-79
2023/03/07 04:28:44;;;;;;;21.60;11.40;;;;;;;8.64;66.96;93978.03;5005091;28;20172;-79
2023/03/07 04:31:30;;;;;;;25.80;13.20;;;;;;;8.78;67.52;94000.44;5009845;28;20409;-78
2023/03/07 04:33:56;;;;;;;19.67;10.83;;;;;;;8.85;66.83;94002.97;5008290;28;21010;-77
2023/03/07 04:36:23;;;;;;;19.87;10.80;;;;;;;8.94;66.13;93999.84;5010821;28;20199;-77
2023/03/07 04:38:49;;;;;;;16.47;9.03;;;;;;;8.95;65.82;94011.13;5013659;28;20255;-78
2023/03/07 04:41:20;;;;;;;13.13;6.80;;;;;;;9.01;65.24;94018.91;5027765;28;20176;-77
2023/03/07 04:43:46;;;;;;;17.97;10.37;;;;;;;8.90;65.44;93980.31;5012061;28;20490;-79
2023/03/07 04:46:13;;;;;;;14.40;8.50;;;;;;;8.90;65.80;93977.69;5011711;28;20426;-78
2023/03/07 04:48:39;;;;;;;13.30;7.43;;;;;;;8.82;65.42;93991.09;5004039;28;20991;-81
2023/03/07 04:51:05;;;;;;;15.35;8.20;;;;;;;8.66;66.65;94023.19;5008401;28;20604;-80
2023/03/07 04:53:30;;;;;;;16.50;8.68;;;;;;;8.02;67.68;93964.16;5013211;28;20422;-79
2023/03/07 04:56:00;;;;;;;14.07;8.25;;;;;;;8.43;66.79;94005.50;5009827;28;20429;-79
2023/03/07 04:58:27;;;;;;;14.20;8.10;;;;;;;8.58;66.66;94003.31;5009548;28;20518;-78
2023/03/07 05:00:55;;;;;;;12.03;7.20;;;;;;;8.61;66.19;93989.75;5013761;28;20188;-78
2023/03/07 05:03:22;;;;;;;12.47;7.00;;;;;;;8.73;65.73;94013.44;5004644;28;20614;-77
2023/03/07 05:05:47;;;;;;;12.93;6.57;;;;;;;8.75;65.43;94005.31;5013779;28;20173;-82
2023/03/07 05:08:13;;;;;;;15.43;7.40;;;;;;;8.81;65.69;94017.59;5003947;28;20207;-79
2023/03/07 05:10:38;;;;;;;14.53;7.10;;;;;;;8.59;64.99;93962.94;5005374;28;20172;-79
2023/03/07 05:13:04;;;;;;;13.63;7.43;;;;;;;8.75;65.02;93974.66;5012270;28;20176;-79
2023/03/07 05:15:29;;;;;;;13.02;7.20;;;;;;;8.73;65.24;93986.41;5004653;28;20489;-79
2023/03/07 05:17:55;;;;;;;12.53;7.23;;;;;;;8.96;64.74;94007.50;5001856;28;20177;-79
2023/03/07 05:20:22;;;;;;;12.40;6.47;;;;;;;8.85;64.74;93989.88;4993380;28;20200;-82
2023/03/07 05:22:48;;;;;;;16.52;8.18;;;;;;;9.04;64.77;94022.94;5009837;28;20430;-81
2023/03/07 05:25:13;;;;;;;17.20;6.83;;;;;;;9.14;64.17;94012.72;5009754;28;20279;-80
2023/03/07 05:27:39;;;;;;;18.97;7.20;;;;;;;9.07;63.88;93996.25;4994414;28;20787;-82
2023/03/07 05:30:05;;;;;;;13.97;7.90;;;;;;;8.95;65.14;93993.56;5007551;28;20581;-78
2023/03/07 05:32:31;;;;;;;13.53;7.40;;;;;;;9.26;64.14;94002.22;5003520;28;20780;-79
2023/03/07 05:34:57;;;;;;;18.00;7.63;;;;;;;8.99;64.65;94002.59;5000847;28;20427;-79
2023/03/07 05:37:22;;;;;;;15.20;8.07;;;;;;;8.74;66.89;94014.22;5003783;28;20423;-79
2023/03/07 05:39:48;;;;;;;16.10;6.80;;;;;;;8.67;66.69;94009.84;5001901;28;20630;-79
2023/03/07 05:42:14;;;;;;;17.93;7.93;;;;;;;8.85;67.36;94021.34;5001661;28;20227;-79
2023/03/07 05:44:40;;;;;;;17.43;6.80;;;;;;;9.07;66.57;94020.69;5011206;28;20164;-78
2023/03/07 05:47:06;;;;;;;18.13;7.13;;;;;;;9.30;65.05;94038.34;5005145;28;20546;-78
2023/03/07 05:49:31;;;;;;;17.13;7.27;;;;;;;9.38;64.43;94031.97;5009719;28;20173;-78
2023/03/07 05:51:57;;;;;;;13.73;7.03;;;;;;;9.19;64.87;94043.53;5004462;28;20202;-78
2023/03/07 05:54:22;;;;;;;15.70;7.35;;;;;;;9.17;64.97;94046.38;4997852;28;20454;-77
2023/03/07 05:56:48;;;;;;;15.70;7.17;;;;;;;9.22;65.63;94038.66;5005168;28;20224;-78
2023/03/07 05:59:14;;;;;;;14.87;7.93;;;;;;;9.31;65.13;94045.19;5004734;28;20192;-78
2023/03/07 06:01:40;;;;;;;10.30;6.00;;;;;;;9.42;64.57;94038.41;5005514;28;20629;-77
2023/03/07 06:04:06;;;;;;;15.63;7.83;;;;;;;9.43;64.34;94039.97;5004116;28;20648;-78
2023/03/07 06:06:31;;;;;;;13.90;7.30;;;;;;;9.21;65.11;94058.06;5007049;28;20176;-78
2023/03/07 06:08:57;;;;;;;13.13;7.23;;;;;;;8.94;66.08;94035.78;5001094;28;20204;-77
2023/03/07 06:11:22;;;;;;;15.33;6.47;;;;;;;9.02;66.83;94043.34;5005564;28;20183;-77
2023/03/07 06:13:48;;;;;;;13.67;7.07;;;;;;;8.94;66.35;94006.91;5005332;28;20176;-77
2023/03/07 06:16:13;;;;;;;13.33;6.87;;;;;;;9.29;66.80;94038.56;5001264;28;20260;-78
2023/03/07 06:18:39;;;;;;;16.37;7.23;;;;;;;9.36;65.98;94050.56;5001445;28;20168;-77
2023/03/07 06:21:06;;;;;;;14.20;6.87;;;;;;;9.51;65.79;94047.56;5001243;28;20250;-77
2023/03/07 06:23:34;;;;;;;17.13;7.57;;;;;;;9.73;66.00;94026.81;5008898;28;20216;-78
2023/03/07 06:26:00;;;;;;;13.03;7.73;;;;;;;10.00;65.02;94041.13;5008838;28;20625;-78
2023/03/07 06:28:26;;;;;;;12.70;7.13;;;;;;;9.99;63.30;94055.31;4995826;28;20735;-78
2023/03/07 06:30:52;;;;;;;14.60;6.93;;;;;;;9.94;63.37;94062.28;4997794;28;20193;-78
2023/03/07 06:33:18;;;;;;;20.20;7.40;;;;;;;10.10;63.86;94038.75;5001214;28;20187;-78
2023/03/07 06:35:44;;;;;;;13.90;6.97;;;;;;;10.22;62.93;94051.91;5004849;28;20203;-78
2023/03/07 06:38:13;;;;;;;14.53;6.77;;;;;;;10.09;63.68;94063.44;5002307;28;20188;-78
2023/03/07 06:40:39;;;;;;;12.07;7.23;;;;;;;10.11;63.48;94068.47;5003366;28;20193;-79
2023/03/07 06:43:04;;;;;;;18.87;6.67;;;;;;;10.00;63.50;94067.44;5002704;28;20230;-78
2023/03/07 06:45:30;;;;;;;16.10;7.30;;;;;;;9.81;64.10;94069.34;5004092;28;20586;-79
2023/03/07 06:47:55;;;;;;;13.00;6.83;;;;;;;9.96;64.77;94065.47;5010694;28;20599;-78
2023/03/07 06:50:21;;;;;;;15.07;7.60;;;;;;;10.00;63.41;94062.19;5004004;28;20551;-79
2023/03/07 06:52:48;;;;;;;14.20;7.37;;;;;;;10.00;64.12;94077.94;4994422;28;21483;-80
2023/03/07 06:55:14;;;;;;;11.47;6.53;;;;;;;10.21;63.85;94080.06;5011702;28;20172;-80
2023/03/07 06:57:41;;;;;;;12.60;7.50;;;;;;;10.39;63.54;94073.09;5011712;28;20299;-80
2023/03/07 07:00:08;;;;;;;14.03;6.80;;;;;;;10.69;61.86;94067.72;5011687;28;20218;-80
2023/03/07 07:02:34;;;;;;;12.20;7.23;;;;;;;10.80;62.78;94059.81;5011511;28;20207;-78
2023/03/07 07:04:59;;;;;;;13.23;7.27;;;;;;;11.04;60.18;94062.38;4995233;28;20259;-78
2023/03/07 07:07:25;;;;;;;14.93;7.43;;;;;;;11.23;59.98;94048.00;5000631;28;20252;-77
2023/03/07 07:09:50;;;;;;;12.43;6.57;;;;;;;11.52;58.32;94054.88;5000602;28;20177;-77
2023/03/07 07:12:16;;;;;;;12.53;6.70;;;;;;;12.12;58.08;94049.06;5006413;28;20175;-78
2023/03/07 07:14:42;;;;;;;12.17;6.33;;;;;;;13.06;54.22;94057.78;5012092;28;20173;-78
2023/03/07 07:17:07;;;;;;;12.90;6.83;;;;;;;13.14;52.37;94044.19;5003489;28;20247;-79
2023/03/07 07:19:33;;;;;;;13.37;6.87;;;;;;;13.25;52.68;94053.03;5014914;28;20201;-78
2023/03/07 07:21:58;;;;;;;16.47;7.20;;;;;;;13.94;50.97;94066.44;5011775;28;20180;-79
2023/03/07 07:24:24;;;;;;;11.73;7.40;;;;;;;14.22;49.86;94068.00;5011170;28;20164;-79
2023/03/07 07:26:50;;;;;;;13.63;7.00;;;;;;;14.32;49.80;94076.03;5010439;28;20283;-80
2023/03/07 07:29:15;;;;;;;12.50;6.40;;;;;;;14.39;50.33;94058.13;5010360;28;20207;-80
2023/03/07 07:31:41;;;;;;;16.40;7.40;;;;;;;14.49;47.97;94071.44;5008786;28;20168;-80
2023/03/07 07:34:06;;;;;;;14.77;5.73;;;;;;;14.57;47.60;94076.25;5011130;28;20272;-80
2023/03/07 07:36:33;;;;;;;12.93;6.53;;;;;;;14.51;47.70;94061.41;4992909;28;20184;-80
2023/03/07 07:39:01;;;;;;;12.60;6.87;;;;;;;14.48;48.04;94085.72;5010857;28;20215;-80
2023/03/07 07:41:27;;;;;;;14.63;6.77;;;;;;;14.24;48.25;94076.50;5012684;28;20182;-80
2023/03/07 07:43:53;;;;;;;11.30;6.67;;;;;;;13.89;49.19;94090.22;4997855;28;20176;-80
2023/03/07 07:46:18;;;;;;;11.53;6.43;;;;;;;13.57;49.26;94085.66;5014140;28;20612;-80
2023/03/07 07:48:46;;;;;;;10.70;6.10;;;;;;;13.53;49.91;94081.09;4995928;28;20212;-80
2023/03/07 07:51:12;;;;;;;12.07;6.37;;;;;;;13.30;51.15;94070.81;5014027;28;20265;-80
2023/03/07 07:53:37;;;;;;;16.50;6.77;;;;;;;13.25;51.62;94083.94;5006561;28;20267;-80
2023/03/07 07:56:03;;;;;;;11.30;6.33;;;;;;;13.15;52.40;94074.84;5013317;28;20176;-80
2023/03/07 07:58:28;;;;;;;14.43;6.53;;;;;;;12.96;52.04;94052.41;5009689;28;20346;-80
2023/03/07 08:00:54;;;;;;;14.03;6.67;;;;;;;12.59;53.35;94077.75;5013121;28;20627;-81
2023/03/07 08:03:19;;;;;;;10.60;5.80;;;;;;;12.54;54.44;94081.09;5014381;28;20263;-81
2023/03/07 08:05:47;;;;;;;12.23;6.53;;;;;;;12.57;54.46;94082.47;5014120;28;20602;-79
2023/03/07 08:08:17;;;;;;;10.47;6.77;;;;;;;12.64;54.02;94091.03;5014969;28;20161;-80
2023/03/07 08:10:45;;;;;;;11.13;6.17;;;;;;;12.68;53.68;94092.94;5007587;28;20165;-80
2023/03/07 08:13:12;;;;;;;15.60;5.70;;;;;;;13.03;54.12;94091.84;5006034;28;20188;-80
2023/03/07 08:15:38;;;;;;;8.50;5.80;;;;;;;13.63;53.30;94075.13;5000213;28;20260;-80
2023/03/07 08:18:04;;;;;;;11.60;6.17;;;;;;;14.68;49.70;94083.22;5013546;28;20259;-80
2023/03/07 08:20:29;;;;;;;12.30;5.73;;;;;;;15.33;49.56;94076.69;5013876;28;20291;-80
2023/03/07 08:22:54;;;;;;;12.30;6.13;;;;;;;15.66;44.95;94080.00;5013783;28;20180;-82
2023/03/07 08:25:22;;;;;;;7.85;4.88;;;;;;;15.39;44.79;94056.28;5014502;28;20172;-81
2023/03/07 08:27:53;;;;;;;10.60;6.13;;;;;;;15.60;44.67;94087.16;5014827;28;20184;-81
2023/03/07 08:30:22;;;;;;;10.30;5.50;;;;;;;15.31;44.53;94065.53;5014553;28;20160;-82
2023/03/07 08:32:49;;;;;;;10.13;5.57;;;;;;;15.39;45.77;94086.25;5014794;28;20172;-81
2023/03/07 08:35:15;;;;;;;8.00;5.50;;;;;;;14.89;45.38;94036.44;5014680;28;20161;-81
2023/03/07 08:37:40;;;;;;;9.00;5.60;;;;;;;14.89;45.90;94057.63;5006131;28;20223;-81
2023/03/07 08:40:06;;;;;;;10.50;5.83;;;;;;;14.99;45.42;94086.84;5006435;28;20287;-80
2023/03/07 08:42:32;;;;;;;9.10;5.17;;;;;;;14.82;47.71;94082.78;5013763;28;20173;-81
2023/03/07 08:44:57;;;;;;;14.85;5.50;;;;;;;14.83;46.29;94090.47;5013438;28;20710;-81
2023/03/07 08:47:23;;;;;;;10.13;5.07;;;;;;;15.14;46.94;94090.63;5013362;28;20169;-80
2023/03/07 08:49:48;;;;;;;9.90;5.32;;;;;;;15.58;45.02;94088.47;5013570;28;20203;-81
2023/03/07 08:52:14;;;;;;;11.63;5.57;;;;;;;16.02;44.50;94036.53;5009416;28;20177;-81
2023/03/07 08:54:39;;;;;;;11.43;6.40;;;;;;;16.60;41.81;94066.31;5013385;28;20268;-82
2023/03/07 08:57:04;;;;;;;10.50;5.03;;;;;;;17.09;40.92;94073.69;5012427;28;20650;-82
2023/03/07 08:59:30;;;;;;;17.30;6.22;;;;;;;17.10;41.76;94032.72;5013704;28;20200;-82
2023/03/07 09:01:56;;;;;;;12.40;5.88;;;;;;;17.66;41.98;94078.56;5005721;28;20207;-82
2023/03/07 09:04:22;;;;;;;10.13;6.35;;;;;;;17.70;40.02;94050.34;5005689;28;20169;-82
2023/03/07 09:06:47;;;;;;;13.48;7.10;;;;;;;18.07;40.04;94085.25;5005981;28;20650;-82
2023/03/07 09:09:12;;;;;;;14.20;6.15;;;;;;;18.28;39.93;94080.59;5013770;28;20179;-80
2023/03/07 09:11:38;;;;;;;9.13;5.65;;;;;;;18.25;39.51;94062.47;5014045;28;20187;-82
2023/03/07 09:14:03;;;;;;;9.77;5.97;;;;;;;18.08;38.50;94075.38;5013862;28;20251;-79
2023/03/07 09:16:29;;;;;;;10.88;5.97;;;;;;;17.56;39.40;94068.72;5006641;28;20266;-79
2023/03/07 09:18:54;;;;;;;12.88;5.97;;;;;;;17.59;40.41;94068.19;5004335;28;20183;-79
2023/03/07 09:21:19;;;;;;;8.48;4.97;;;;;;;17.92;38.96;94044.59;5000215;28;20185;-81
2023/03/07 09:23:45;;;;;;;11.02;5.43;;;;;;;18.26;38.06;94061.41;5002451;28;20247;-81
2023/03/07 09:26:10;;;;;;;7.18;4.30;;;;;;;18.65;37.95;94063.28;5013787;28;21076;-81
2023/03/07 09:28:36;;;;;;;6.78;4.65;;;;;;;18.75;37.17;94064.00;4998828;28;20177;-83
2023/03/07 09:31:12;;;;;;;8.52;4.72;;;;;;;18.71;37.60;94065.63;5001919;28;20169;-84
2023/03/07 09:33:39;;;;;;;8.25;4.70;;;;;;;18.37;37.57;94059.47;5001740;28;20215;-85
2023/03/07 09:36:07;;;;;;;10.55;4.90;;;;;;;18.09;37.35;94056.47;5011548;28;20659;-83
2023/03/07 09:38:33;;;;;;;8.60;5.15;;;;;;;17.58;38.92;94045.28;5013244;28;20343;-82
2023/03/07 09:41:07;;;;;;;8.85;4.45;;;;;;;17.39;40.89;94041.66;4997439;28;20201;-81
2023/03/07 09:43:47;;;;;;;9.32;4.38;;;;;;;17.68;39.74;94042.63;5011327;28;20183;-81
2023/03/07 09:46:37;;;;;;;9.27;4.60;;;;;;;17.89;38.72;94045.97;5011103;28;20245;-81
2023/03/07 09:49:17;;;;;;;15.70;4.57;;;;;;;17.83;38.51;94035.59;5011252;28;20570;-81
2023/03/07 09:51:45;;;;;;;7.00;3.72;;;;;;;17.79;39.68;94031.91;5006869;28;20189;-81
2023/03/07 09:54:15;;;;;;;5.65;3.25;;;;;;;18.10;41.49;94022.63;4991701;28;20304;-81
2023/03/07 09:56:53;;;;;;;6.22;3.47;;;;;;;18.30;37.77;94025.16;4992347;28;20211;-81
2023/03/07 09:59:23;;;;;;;9.48;3.60;;;;;;;17.73;36.18;94009.84;5009902;28;20754;-82
2023/03/07 10:01:58;;;;;;;5.90;3.30;;;;;;;17.23;36.57;94021.50;5011130;28;20611;-81
2023/03/07 10:04:32;;;;;;;5.00;3.17;;;;;;;17.02;39.13;94014.69;5010653;28;20658;-83
2023/03/07 10:07:00;;;;;;;5.68;2.97;;;;;;;16.89;37.32;93997.44;4993157;28;20271;-84
2023/03/07 10:09:25;;;;;;;4.50;2.10;;;;;;;16.57;38.12;94000.41;5012539;28;20255;-83
2023/03/07 10:12:06;;;;;;;3.83;2.03;;;;;;;16.45;39.16;93999.88;5012681;28;20264;-83
2023/03/07 10:14:49;;;;;;;4.00;2.30;;;;;;;16.66;40.15;93998.81;5012694;28;20179;-83
2023/03/07 10:17:25;;;;;;;3.30;2.47;;;;;;;16.87;40.56;93981.75;5010673;28;20184;-83
2023/03/07 10:19:56;;;;;;;4.82;2.63;;;;;;;17.14;40.20;93992.00;5010611;28;20582;-83
2023/03/07 10:22:47;;;;;;;5.18;2.33;;;;;;;17.09;39.39;93962.78;5010548;28;20180;-83
2023/03/07 10:25:12;;;;;;;5.57;2.67;;;;;;;17.21;41.48;93971.22;5010514;28;20184;-82
2023/03/07 10:27:38;;;;;;;4.28;2.28;;;;;;;17.03;38.27;93953.25;5009486;28;20180;-83
2023/03/07 10:30:16;;;;;;;4.88;3.58;;;;;;;16.65;38.38;93968.00;5010327;28;20172;-83
2023/03/07 10:32:58;;;;;;;6.43;2.63;;;;;;;16.03;38.23;93966.47;5010695;28;20179;-83
2023/03/07 10:35:39;;;;;;;5.90;2.50;;;;;;;15.80;39.24;93956.38;5010676;28;20195;-82
2023/03/07 10:38:23;;;;;;;2.97;2.17;;;;;;;15.74;39.42;93957.44;5012162;28;20168;-84
2023/03/07 10:40:58;;;;;;;5.60;2.65;;;;;;;15.78;38.88;93963.81;5011898;28;20223;-82
2023/03/07 10:43:30;;;;;;;4.03;2.30;;;;;;;15.90;38.85;93958.25;5010362;28;20697;-82
2023/03/07 10:46:16;;;;;;;5.45;3.20;;;;;;;15.85;37.72;93961.69;5008973;28;20574;-82
2023/03/07 10:48:47;;;;;;;5.30;2.30;;;;;;;15.81;38.59;93958.78;5011017;28;20206;-82
2023/03/07 10:51:30;;;;;;;6.50;2.63;;;;;;;15.53;38.19;93955.78;5012265;28;20168;-82
2023/03/07 10:53:56;;;;;;;3.97;2.47;;;;;;;15.36;38.31;93942.78;5008933;28;20179;-81
2023/03/07 10:56:22;;;;;;;5.57;2.20;;;;;;;15.39;38.85;93945.69;5011905;28;20238;-80
2023/03/07 10:59:08;;;;;;;6.60;2.33;;;;;;;15.58;39.62;93943.34;5012253;28;20234;-81
2023/03/07 11:01:35;;;;;;;3.50;2.50;;;;;;;15.77;39.83;93940.97;5005598;28;20188;-81
2023/03/07 11:04:01;;;;;;;6.30;2.40;;;;;;;15.84;38.70;93929.03;5011162;28;20184;-81
2023/03/07 11:06:43;;;;;;;3.08;1.95;;;;;;;15.99;40.05;93922.16;5011741;28;20176;-80
2023/03/07 11:09:14;;;;;;;5.75;2.50;;;;;;;16.20;39.27;93916.53;5011883;28;20247;-79
2023/03/07 11:11:46;;;;;;;3.33;1.95;;;;;;;16.36;37.73;93927.09;5010914;28;20180;-80
2023/03/07 11:14:12;;;;;;;3.92;1.92;;;;;;;16.23;36.79;93916.00;5011910;28;20235;-81
2023/03/07 11:16:53;;;;;;;6.30;1.55;;;;;;;15.89;34.78;93875.16;5013622;28;20539;-80
2023/03/07 11:19:36;;;;;;;3.00;1.67;;;;;;;15.94;35.21;93904.34;5015524;28;20172;-81
2023/03/07 11:22:18;;;;;;;5.43;1.92;;;;;;;15.78;37.97;93885.00;5015651;28;20172;-80
2023/03/07 11:24:53;;;;;;;11.82;2.92;;;;;;;15.75;37.20;93896.13;5006485;28;20180;-81
2023/03/07 11:27:44;;;;;;;3.38;1.60;;;;;;;15.68;37.81;93898.25;5019819;28;20210;-80
2023/03/07 11:30:23;;;;;;;3.97;1.88;;;;;;;15.44;38.26;93862.69;5019703;28;20247;-80
2023/03/07 11:33:02;;;;;;;3.08;2.08;;;;;;;15.64;39.91;93889.25;5026948;28;20208;-81
2023/03/07 11:36:07;;;;;;;4.53;1.80;;;;;;;15.72;39.78;93886.06;5014425;28;20231;-81